sensor_id;sensor_type;location;lat;lon;timestamp;P1;durP1;ratioP1;P2;durP2;ratioP2
19575;SDS011;41589;51.196;7.074;2023-03-14T00:03:30;1.20;;;1.03;;
19575;SDS011;41589;51.196;7.074;2023-03-14T00:08:32;1.00;;;1.00;;
19575;SDS011;41589;51.196;7.074;2023-03-14T00:13:32;0.90;;;0.90;;
19575;SDS011;41589;51.196;7.074;2023-03-14T00:18:33;0.80;;;0.80;;
19575;SDS011;41589;51.196;7.074;2023-03-14T00:23:34;0.80;;;0.80;;
19575;SDS011;41589;51.196;7.074;2023-03-14T00:28:36;0.87;;;0.87;;
19575;SDS011;41589;51.196;7.074;2023-03-14T00:33:37;0.90;;;0.90;;
19575;SDS011;41589;51.196;7.074;2023-03-14T00:38:38;1.10;;;1.00;;
19575;SDS011;41589;51.196;7.074;2023-03-14T00:43:39;1.00;;;1.00;;
19575;SDS011;41589;51.196;7.074;2023-03-14T00:48:40;0.90;;;0.90;;
19575;SDS011;41589;51.196;7.074;2023-03-14T00:53:41;0.90;;;0.90;;
19575;SDS011;41589;51.196;7.074;2023-03-14T00:58:41;1.00;;;1.00;;
19575;SDS011;41589;51.196;7.074;2023-03-14T01:03:42;0.90;;;0.90;;
19575;SDS011;41589;51.196;7.074;2023-03-14T01:08:43;0.97;;;0.90;;
19575;SDS011;41589;51.196;7.074;2023-03-14T01:13:44;0.90;;;0.90;;
19575;SDS011;41589;51.196;7.074;2023-03-14T01:18:45;0.80;;;0.80;;
19575;SDS011;41589;51.196;7.074;2023-03-14T01:23:46;1.00;;;1.00;;
19575;SDS011;41589;51.196;7.074;2023-03-14T01:28:48;1.20;;;1.17;;
19575;SDS011;41589;51.196;7.074;2023-03-14T01:33:52;0.80;;;0.80;;
19575;SDS011;41589;51.196;7.074;2023-03-14T01:38:53;1.27;;;1.17;;
19575;SDS011;41589;51.196;7.074;2023-03-14T01:43:53;1.10;;;1.10;;
19575;SDS011;41589;51.196;7.074;2023-03-14T01:48:55;1.37;;;1.00;;
19575;SDS011;41589;51.196;7.074;2023-03-14T01:54:04;0.87;;;0.87;;
19575;SDS011;41589;51.196;7.074;2023-03-14T01:59:09;1.20;;;1.10;;
19575;SDS011;41589;51.196;7.074;2023-03-14T02:04:11;1.43;;;1.00;;
19575;SDS011;41589;51.196;7.074;2023-03-14T02:09:14;1.50;;;1.40;;
19575;SDS011;41589;51.196;7.074;2023-03-14T02:14:21;1.30;;;1.17;;
19575;SDS011;41589;51.196;7.074;2023-03-14T02:19:40;1.03;;;1.03;;
19575;SDS011;41589;51.196;7.074;2023-03-14T02:25:03;1.13;;;1.10;;
19575;SDS011;41589;51.196;7.074;2023-03-14T02:30:17;0.80;;;0.80;;
19575;SDS011;41589;51.196;7.074;2023-03-14T02:35:24;0.97;;;0.97;;
19575;SDS011;41589;51.196;7.074;2023-03-14T02:40:28;1.10;;;1.10;;
19575;SDS011;41589;51.196;7.074;2023-03-14T02:45:37;1.00;;;1.00;;
19575;SDS011;41589;51.196;7.074;2023-03-14T02:50:45;2.00;;;1.10;;
19575;SDS011;41589;51.196;7.074;2023-03-14T02:55:51;1.07;;;1.00;;
19575;SDS011;41589;51.196;7.074;2023-03-14T03:00:53;1.43;;;1.43;;
19575;SDS011;41589;51.196;7.074;2023-03-14T03:05:56;1.00;;;1.00;;
19575;SDS011;41589;51.196;7.074;2023-03-14T03:10:57;0.80;;;0.80;;
19575;SDS011;41589;51.196;7.074;2023-03-14T03:15:59;0.80;;;0.80;;
19575;SDS011;41589;51.196;7.074;2023-03-14T03:21:00;0.90;;;0.90;;
19575;SDS011;41589;51.196;7.074;2023-03-14T03:26:01;0.77;;;0.77;;
19575;SDS011;41589;51.196;7.074;2023-03-14T03:31:06;0.90;;;0.90;;
19575;SDS011;41589;51.196;7.074;2023-03-14T03:36:11;1.00;;;0.90;;
19575;SDS011;41589;51.196;7.074;2023-03-14T03:41:13;0.80;;;0.80;;
19575;SDS011;41589;51.196;7.074;2023-03-14T03:46:14;0.97;;;0.97;;
19575;SDS011;41589;51.196;7.074;2023-03-14T03:51:15;0.80;;;0.80;;
19575;SDS011;41589;51.196;7.074;2023-03-14T03:56:17;1.00;;;1.00;;
19575;SDS011;41589;51.196;7.074;2023-03-14T04:01:18;1.40;;;1.30;;
19575;SDS011;41589;51.196;7.074;2023-03-14T04:06:22;1.10;;;1.10;;
19575;SDS011;41589;51.196;7.074;2023-03-14T04:11:24;0.97;;;0.90;;
19575;SDS011;41589;51.196;7.074;2023-03-14T04:16:35;1.00;;;1.00;;
19575;SDS011;41589;51.196;7.074;2023-03-14T04:21:43;1.00;;;1.00;;
19575;SDS011;41589;51.196;7.074;2023-03-14T04:26:47;1.40;;;1.30;;
19575;SDS011;41589;51.196;7.074;2023-03-14T04:31:48;1.50;;;1.30;;
19575;SDS011;41589;51.196;7.074;2023-03-14T04:36:50;1.27;;;1.17;;
19575;SDS011;41589;51.196;7.074;2023-03-14T04:41:55;1.23;;;1.17;;
19575;SDS011;41589;51.196;7.074;2023-03-14T04:46:55;1.10;;;1.10;;
19575;SDS011;41589;51.196;7.074;2023-03-14T04:51:56;1.17;;;1.03;;
19575;SDS011;41589;51.196;7.074;2023-03-14T04:56:59;1.50;;;1.40;;
19575;SDS011;41589;51.196;7.074;2023-03-14T05:02:02;0.90;;;0.90;;
19575;SDS011;41589;51.196;7.074;2023-03-14T05:07:21;1.03;;;1.00;;
19575;SDS011;41589;51.196;7.074;2023-03-14T05:12:30;0.90;;;0.90;;
19575;SDS011;41589;51.196;7.074;2023-03-14T05:17:42;0.90;;;0.90;;
19575;SDS011;41589;51.196;7.074;2023-03-14T05:23:02;1.00;;;1.00;;
19575;SDS011;41589;51.196;7.074;2023-03-14T05:28:22;1.60;;;1.20;;
19575;SDS011;41589;51.196;7.074;2023-03-14T05:33:39;1.03;;;0.97;;
19575;SDS011;41589;51.196;7.074;2023-03-14T05:39:07;0.90;;;0.90;;
19575;SDS011;41589;51.196;7.074;2023-03-14T05:44:37;1.07;;;1.07;;
19575;SDS011;41589;51.196;7.074;2023-03-14T05:49:56;1.00;;;0.90;;
19575;SDS011;41589;51.196;7.074;2023-03-14T05:55:11;0.93;;;0.93;;
19575;SDS011;41589;51.196;7.074;2023-03-14T06:00:30;1.20;;;1.10;;
19575;SDS011;41589;51.196;7.074;2023-03-14T06:05:45;1.10;;;1.00;;
19575;SDS011;41589;51.196;7.074;2023-03-14T06:10:52;0.87;;;0.87;;
19575;SDS011;41589;51.196;7.074;2023-03-14T06:15:57;0.80;;;0.80;;
19575;SDS011;41589;51.196;7.074;2023-03-14T06:26:28;0.70;;;0.70;;
19575;SDS011;41589;51.196;7.074;2023-03-14T06:31:29;0.80;;;0.80;;
19575;SDS011;41589;51.196;7.074;2023-03-14T06:36:34;0.70;;;0.70;;
19575;SDS011;41589;51.196;7.074;2023-03-14T06:41:36;0.73;;;0.73;;
19575;SDS011;41589;51.196;7.074;2023-03-14T06:46:40;0.70;;;0.70;;
19575;SDS011;41589;51.196;7.074;2023-03-14T06:51:41;0.90;;;0.90;;
19575;SDS011;41589;51.196;7.074;2023-03-14T06:56:44;0.70;;;0.70;;
19575;SDS011;41589;51.196;7.074;2023-03-14T07:01:45;0.80;;;0.80;;
19575;SDS011;41589;51.196;7.074;2023-03-14T07:06:46;0.80;;;0.80;;
19575;SDS011;41589;51.196;7.074;2023-03-14T07:11:47;0.70;;;0.70;;
19575;SDS011;41589;51.196;7.074;2023-03-14T07:16:53;0.80;;;0.80;;
19575;SDS011;41589;51.196;7.074;2023-03-14T07:21:54;0.70;;;0.70;;
19575;SDS011;41589;51.196;7.074;2023-03-14T07:26:58;0.67;;;0.67;;
19575;SDS011;41589;51.196;7.074;2023-03-14T07:31:59;0.60;;;0.60;;
19575;SDS011;41589;51.196;7.074;2023-03-14T07:37:02;0.70;;;0.70;;
19575;SDS011;41589;51.196;7.074;2023-03-14T07:42:05;0.70;;;0.70;;
19575;SDS011;41589;51.196;7.074;2023-03-14T07:47:24;0.80;;;0.70;;
19575;SDS011;41589;51.196;7.074;2023-03-14T07:52:26;0.70;;;0.70;;
19575;SDS011;41589;51.196;7.074;2023-03-14T07:57:27;0.83;;;0.83;;
19575;SDS011;41589;51.196;7.074;2023-03-14T08:02:27;0.70;;;0.70;;
19575;SDS011;41589;51.196;7.074;2023-03-14T08:07:27;0.70;;;0.70;;
19575;SDS011;41589;51.196;7.074;2023-03-14T08:12:28;0.70;;;0.70;;
19575;SDS011;41589;51.196;7.074;2023-03-14T08:17:28;0.77;;;0.77;;
19575;SDS011;41589;51.196;7.074;2023-03-14T08:22:29;0.77;;;0.77;;
19575;SDS011;41589;51.196;7.074;2023-03-14T08:27:29;0.70;;;0.70;;
19575;SDS011;41589;51.196;7.074;2023-03-14T08:32:30;0.60;;;0.60;;
19575;SDS011;41589;51.196;7.074;2023-03-14T08:37:31;0.70;;;0.70;;
19575;SDS011;41589;51.196;7.074;2023-03-14T08:42:32;0.80;;;0.80;;
19575;SDS011;41589;51.196;7.074;2023-03-14T08:47:36;0.80;;;0.80;;
19575;SDS011;41589;51.196;7.074;2023-03-14T08:52:36;0.70;;;0.70;;
19575;SDS011;41589;51.196;7.074;2023-03-14T08:57:37;0.60;;;0.60;;
19575;SDS011;41589;51.196;7.074;2023-03-14T09:02:38;0.70;;;0.70;;
19575;SDS011;41589;51.196;7.074;2023-03-14T09:07:39;0.70;;;0.70;;
19575;SDS011;41589;51.196;7.074;2023-03-14T09:12:47;0.70;;;0.70;;
19575;SDS011;41589;51.196;7.074;2023-03-14T09:17:47;0.70;;;0.70;;
19575;SDS011;41589;51.196;7.074;2023-03-14T09:22:48;0.77;;;0.77;;
19575;SDS011;41589;51.196;7.074;2023-03-14T09:27:49;0.80;;;0.80;;
19575;SDS011;41589;51.196;7.074;2023-03-14T09:32:56;0.60;;;0.60;;
19575;SDS011;41589;51.196;7.074;2023-03-14T09:37:57;0.70;;;0.70;;
19575;SDS011;41589;51.196;7.074;2023-03-14T09:42:58;0.80;;;0.80;;
19575;SDS011;41589;51.196;7.074;2023-03-14T09:47:59;0.70;;;0.70;;
19575;SDS011;41589;51.196;7.074;2023-03-14T09:53:07;0.70;;;0.70;;
19575;SDS011;41589;51.196;7.074;2023-03-14T09:58:13;0.80;;;0.80;;
19575;SDS011;41589;51.196;7.074;2023-03-14T10:03:31;0.80;;;0.80;;
19575;SDS011;41589;51.196;7.074;2023-03-14T10:08:33;0.70;;;0.70;;
19575;SDS011;41589;51.196;7.074;2023-03-14T10:13:34;0.80;;;0.80;;
19575;SDS011;41589;51.196;7.074;2023-03-14T10:18:34;0.80;;;0.80;;
19575;SDS011;41589;51.196;7.074;2023-03-14T10:23:35;0.90;;;0.90;;
19575;SDS011;41589;51.196;7.074;2023-03-14T10:28:44;0.80;;;0.80;;
19575;SDS011;41589;51.196;7.074;2023-03-14T10:34:02;0.90;;;0.90;;
19575;SDS011;41589;51.196;7.074;2023-03-14T10:44:18;0.87;;;0.87;;
19575;SDS011;41589;51.196;7.074;2023-03-14T10:49:30;0.80;;;0.80;;
19575;SDS011;41589;51.196;7.074;2023-03-14T10:54:31;0.80;;;0.80;;
19575;SDS011;41589;51.196;7.074;2023-03-14T10:59:35;0.83;;;0.83;;
19575;SDS011;41589;51.196;7.074;2023-03-14T11:25:47;1.20;;;1.20;;
19575;SDS011;41589;51.196;7.074;2023-03-14T11:41:41;1.80;;;1.70;;
19575;SDS011;41589;51.196;7.074;2023-03-14T11:47:08;1.73;;;1.63;;
19575;SDS011;41589;51.196;7.074;2023-03-14T11:52:23;1.50;;;1.40;;
19575;SDS011;41589;51.196;7.074;2023-03-14T11:57:31;1.27;;;1.23;;
19575;SDS011;41589;51.196;7.074;2023-03-14T12:02:33;1.10;;;1.10;;
19575;SDS011;41589;51.196;7.074;2023-03-14T12:13:11;0.90;;;0.90;;
19575;SDS011;41589;51.196;7.074;2023-03-14T12:18:17;1.10;;;1.10;;
19575;SDS011;41589;51.196;7.074;2023-03-14T12:23:20;1.00;;;1.00;;
19575;SDS011;41589;51.196;7.074;2023-03-14T12:28:22;0.80;;;0.80;;
19575;SDS011;41589;51.196;7.074;2023-03-14T12:33:31;1.00;;;1.00;;
19575;SDS011;41589;51.196;7.074;2023-03-14T12:43:37;1.10;;;1.10;;
19575;SDS011;41589;51.196;7.074;2023-03-14T12:48:39;1.10;;;1.10;;
19575;SDS011;41589;51.196;7.074;2023-03-14T12:53:44;1.20;;;1.20;;
19575;SDS011;41589;51.196;7.074;2023-03-14T13:09:50;1.17;;;1.10;;
19575;SDS011;41589;51.196;7.074;2023-03-14T13:14:54;1.20;;;1.10;;
19575;SDS011;41589;51.196;7.074;2023-03-14T13:20:00;1.10;;;1.10;;
19575;SDS011;41589;51.196;7.074;2023-03-14T13:25:06;1.50;;;1.40;;
19575;SDS011;41589;51.196;7.074;2023-03-14T13:35:19;1.63;;;1.50;;
19575;SDS011;41589;51.196;7.074;2023-03-14T13:40:36;1.77;;;1.47;;
19575;SDS011;41589;51.196;7.074;2023-03-14T13:45:43;1.93;;;1.47;;
19575;SDS011;41589;51.196;7.074;2023-03-14T13:50:49;2.27;;;1.50;;
19575;SDS011;41589;51.196;7.074;2023-03-14T13:55:52;2.37;;;1.50;;
19575;SDS011;41589;51.196;7.074;2023-03-14T14:00:54;1.50;;;1.30;;
19575;SDS011;41589;51.196;7.074;2023-03-14T14:05:57;2.60;;;1.67;;
19575;SDS011;41589;51.196;7.074;2023-03-14T14:11:01;2.00;;;1.57;;
19575;SDS011;41589;51.196;7.074;2023-03-14T14:16:04;2.30;;;1.80;;
19575;SDS011;41589;51.196;7.074;2023-03-14T14:21:05;2.47;;;1.57;;
19575;SDS011;41589;51.196;7.074;2023-03-14T14:26:06;2.10;;;1.90;;
19575;SDS011;41589;51.196;7.074;2023-03-14T14:36:14;3.33;;;1.80;;
19575;SDS011;41589;51.196;7.074;2023-03-14T14:41:22;3.83;;;2.30;;
19575;SDS011;41589;51.196;7.074;2023-03-14T14:46:32;1.90;;;1.80;;
19575;SDS011;41589;51.196;7.074;2023-03-14T14:51:43;2.43;;;2.00;;
19575;SDS011;41589;51.196;7.074;2023-03-14T14:56:51;2.57;;;1.80;;
19575;SDS011;41589;51.196;7.074;2023-03-14T15:01:56;2.27;;;1.73;;
19575;SDS011;41589;51.196;7.074;2023-03-14T15:06:58;2.33;;;1.93;;
19575;SDS011;41589;51.196;7.074;2023-03-14T15:11:59;2.40;;;1.50;;
19575;SDS011;41589;51.196;7.074;2023-03-14T15:16:59;1.30;;;1.20;;
19575;SDS011;41589;51.196;7.074;2023-03-14T15:22:00;1.60;;;1.50;;
19575;SDS011;41589;51.196;7.074;2023-03-14T15:27:00;1.30;;;1.30;;
19575;SDS011;41589;51.196;7.074;2023-03-14T15:32:01;1.60;;;1.50;;
19575;SDS011;41589;51.196;7.074;2023-03-14T15:37:01;3.73;;;1.57;;
19575;SDS011;41589;51.196;7.074;2023-03-14T15:42:07;1.53;;;1.43;;
19575;SDS011;41589;51.196;7.074;2023-03-14T15:47:08;1.53;;;1.43;;
19575;SDS011;41589;51.196;7.074;2023-03-14T15:52:10;1.47;;;1.33;;
19575;SDS011;41589;51.196;7.074;2023-03-14T15:57:11;1.27;;;1.13;;
19575;SDS011;41589;51.196;7.074;2023-03-14T16:02:11;1.57;;;1.47;;
19575;SDS011;41589;51.196;7.074;2023-03-14T16:07:12;1.73;;;1.30;;
19575;SDS011;41589;51.196;7.074;2023-03-14T16:12:12;1.20;;;1.20;;
19575;SDS011;41589;51.196;7.074;2023-03-14T16:17:13;2.07;;;1.50;;
19575;SDS011;41589;51.196;7.074;2023-03-14T16:22:13;4.03;;;1.30;;
19575;SDS011;41589;51.196;7.074;2023-03-14T16:27:13;1.70;;;1.60;;
19575;SDS011;41589;51.196;7.074;2023-03-14T16:32:14;1.77;;;1.67;;
19575;SDS011;41589;51.196;7.074;2023-03-14T16:37:14;1.20;;;1.13;;
19575;SDS011;41589;51.196;7.074;2023-03-14T16:42:15;3.60;;;1.20;;
19575;SDS011;41589;51.196;7.074;2023-03-14T16:47:16;1.10;;;1.10;;
19575;SDS011;41589;51.196;7.074;2023-03-14T16:52:16;1.20;;;1.10;;
19575;SDS011;41589;51.196;7.074;2023-03-14T16:57:16;1.50;;;1.40;;
19575;SDS011;41589;51.196;7.074;2023-03-14T17:02:17;1.10;;;1.10;;
19575;SDS011;41589;51.196;7.074;2023-03-14T17:07:17;1.40;;;1.30;;
19575;SDS011;41589;51.196;7.074;2023-03-14T17:12:18;1.17;;;1.17;;
19575;SDS011;41589;51.196;7.074;2023-03-14T17:17:18;1.67;;;1.57;;
19575;SDS011;41589;51.196;7.074;2023-03-14T17:22:18;1.60;;;1.50;;
19575;SDS011;41589;51.196;7.074;2023-03-14T17:27:19;1.27;;;1.17;;
19575;SDS011;41589;51.196;7.074;2023-03-14T17:32:20;1.70;;;1.23;;
19575;SDS011;41589;51.196;7.074;2023-03-14T17:37:20;1.47;;;1.37;;
19575;SDS011;41589;51.196;7.074;2023-03-14T17:42:21;1.43;;;1.30;;
19575;SDS011;41589;51.196;7.074;2023-03-14T17:47:21;1.63;;;1.20;;
19575;SDS011;41589;51.196;7.074;2023-03-14T17:52:22;1.53;;;1.30;;
19575;SDS011;41589;51.196;7.074;2023-03-14T17:57:22;1.30;;;1.20;;
19575;SDS011;41589;51.196;7.074;2023-03-14T18:02:23;1.20;;;1.20;;
19575;SDS011;41589;51.196;7.074;2023-03-14T18:07:24;1.30;;;1.20;;
19575;SDS011;41589;51.196;7.074;2023-03-14T18:12:24;1.10;;;1.00;;
19575;SDS011;41589;51.196;7.074;2023-03-14T18:17:25;1.03;;;1.03;;
19575;SDS011;41589;51.196;7.074;2023-03-14T18:22:25;1.67;;;1.37;;
19575;SDS011;41589;51.196;7.074;2023-03-14T18:27:26;2.00;;;1.70;;
19575;SDS011;41589;51.196;7.074;2023-03-14T18:32:38;1.67;;;1.30;;
19575;SDS011;41589;51.196;7.074;2023-03-14T18:37:38;2.50;;;1.50;;
19575;SDS011;41589;51.196;7.074;2023-03-14T18:42:39;1.60;;;1.50;;
19575;SDS011;41589;51.196;7.074;2023-03-14T18:47:39;1.60;;;1.50;;
19575;SDS011;41589;51.196;7.074;2023-03-14T18:52:40;2.00;;;1.67;;
19575;SDS011;41589;51.196;7.074;2023-03-14T18:57:40;1.23;;;1.23;;
19575;SDS011;41589;51.196;7.074;2023-03-14T19:02:41;1.90;;;1.67;;
19575;SDS011;41589;51.196;7.074;2023-03-14T19:07:41;1.30;;;1.20;;
19575;SDS011;41589;51.196;7.074;2023-03-14T19:12:41;1.87;;;1.30;;
19575;SDS011;41589;51.196;7.074;2023-03-14T19:17:42;1.30;;;1.20;;
19575;SDS011;41589;51.196;7.074;2023-03-14T19:22:42;1.10;;;1.10;;
19575;SDS011;41589;51.196;7.074;2023-03-14T19:27:43;1.40;;;1.30;;
19575;SDS011;41589;51.196;7.074;2023-03-14T19:32:43;2.63;;;1.30;;
19575;SDS011;41589;51.196;7.074;2023-03-14T19:37:43;1.50;;;1.40;;
19575;SDS011;41589;51.196;7.074;2023-03-14T19:42:46;1.60;;;1.50;;
19575;SDS011;41589;51.196;7.074;2023-03-14T19:47:47;1.70;;;1.20;;
19575;SDS011;41589;51.196;7.074;2023-03-14T19:52:47;1.30;;;1.20;;
19575;SDS011;41589;51.196;7.074;2023-03-14T19:57:48;1.17;;;1.07;;
19575;SDS011;41589;51.196;7.074;2023-03-14T20:02:51;1.40;;;1.30;;
19575;SDS011;41589;51.196;7.074;2023-03-14T20:07:51;1.27;;;1.17;;
19575;SDS011;41589;51.196;7.074;2023-03-14T20:12:52;2.53;;;1.47;;
19575;SDS011;41589;51.196;7.074;2023-03-14T20:17:52;1.97;;;1.77;;
19575;SDS011;41589;51.196;7.074;2023-03-14T20:22:53;1.50;;;1.40;;
19575;SDS011;41589;51.196;7.074;2023-03-14T20:27:53;1.97;;;1.30;;
19575;SDS011;41589;51.196;7.074;2023-03-14T20:32:53;1.57;;;1.47;;
19575;SDS011;41589;51.196;7.074;2023-03-14T20:37:54;1.53;;;1.43;;
19575;SDS011;41589;51.196;7.074;2023-03-14T20:42:55;1.23;;;1.13;;
19575;SDS011;41589;51.196;7.074;2023-03-14T20:47:55;1.50;;;1.40;;
19575;SDS011;41589;51.196;7.074;2023-03-14T20:52:56;1.17;;;1.17;;
19575;SDS011;41589;51.196;7.074;2023-03-14T20:57:56;1.40;;;1.30;;
19575;SDS011;41589;51.196;7.074;2023-03-14T21:02:56;1.67;;;1.27;;
19575;SDS011;41589;51.196;7.074;2023-03-14T21:07:57;1.77;;;1.20;;
19575;SDS011;41589;51.196;7.074;2023-03-14T21:12:57;1.70;;;1.60;;
19575;SDS011;41589;51.196;7.074;2023-03-14T21:17:57;1.40;;;1.30;;
19575;SDS011;41589;51.196;7.074;2023-03-14T21:23:04;2.00;;;1.40;;
19575;SDS011;41589;51.196;7.074;2023-03-14T21:28:05;1.30;;;1.20;;
19575;SDS011;41589;51.196;7.074;2023-03-14T21:33:06;1.40;;;1.30;;
19575;SDS011;41589;51.196;7.074;2023-03-14T21:38:07;1.40;;;1.30;;
19575;SDS011;41589;51.196;7.074;2023-03-14T21:43:07;1.57;;;1.47;;
19575;SDS011;41589;51.196;7.074;2023-03-14T21:48:07;1.33;;;1.33;;
19575;SDS011;41589;51.196;7.074;2023-03-14T21:53:08;2.03;;;1.83;;
19575;SDS011;41589;51.196;7.074;2023-03-14T21:58:09;1.50;;;1.40;;
19575;SDS011;41589;51.196;7.074;2023-03-14T22:03:14;2.00;;;1.90;;
19575;SDS011;41589;51.196;7.074;2023-03-14T22:08:16;1.33;;;1.23;;
19575;SDS011;41589;51.196;7.074;2023-03-14T22:13:17;1.70;;;1.60;;
19575;SDS011;41589;51.196;7.074;2023-03-14T22:18:18;1.20;;;1.20;;
19575;SDS011;41589;51.196;7.074;2023-03-14T22:23:18;1.33;;;1.30;;
19575;SDS011;41589;51.196;7.074;2023-03-14T22:28:18;1.57;;;1.47;;
19575;SDS011;41589;51.196;7.074;2023-03-14T22:33:19;1.33;;;1.23;;
19575;SDS011;41589;51.196;7.074;2023-03-14T22:38:19;1.60;;;1.50;;
19575;SDS011;41589;51.196;7.074;2023-03-14T22:43:20;1.67;;;1.57;;
19575;SDS011;41589;51.196;7.074;2023-03-14T22:48:20;1.50;;;1.40;;
19575;SDS011;41589;51.196;7.074;2023-03-14T22:53:20;1.50;;;1.40;;
19575;SDS011;41589;51.196;7.074;2023-03-14T22:58:21;1.77;;;1.67;;
19575;SDS011;41589;51.196;7.074;2023-03-14T23:03:21;2.27;;;1.73;;
19575;SDS011;41589;51.196;7.074;2023-03-14T23:08:21;1.90;;;1.77;;
19575;SDS011;41589;51.196;7.074;2023-03-14T23:13:22;1.90;;;1.60;;
19575;SDS011;41589;51.196;7.074;2023-03-14T23:18:22;1.93;;;1.60;;
19575;SDS011;41589;51.196;7.074;2023-03-14T23:23:26;1.87;;;1.77;;
19575;SDS011;41589;51.196;7.074;2023-03-14T23:28:26;1.63;;;1.53;;
19575;SDS011;41589;51.196;7.074;2023-03-14T23:33:27;1.30;;;1.23;;
19575;SDS011;41589;51.196;7.074;2023-03-14T23:38:28;1.43;;;1.27;;
19575;SDS011;41589;51.196;7.074;2023-03-14T23:43:30;1.57;;;1.47;;
19575;SDS011;41589;51.196;7.074;2023-03-14T23:48:31;1.60;;;1.40;;
19575;SDS011;41589;51.196;7.074;2023-03-14T23:53:34;2.10;;;1.60;;
19575;SDS011;41589;51.196;7.074;2023-03-14T23:58:35;1.60;;;1.50;;
